Time;durP1;ratioP1;P1;durP2;ratioP2;P2;SDS_P1;SDS_P2;PMS_P1;PMS_P2;Temp;Humidity;BMP_temperature;BMP_pressure;BME280_temperature;BME280_humidity;BME280_pressure;Samples;Min_cycle;Max_cycle;Signal;HPM_P1;HPM_P2
2022/08/06 00:02:34;;;;;;;26.58;11.68;;;;;;;;;;5051131;27;97345;-77
2022/08/06 00:05:01;;;;;;;30.48;19.42;;;;;;;;;;5067895;27;95468;-77
2022/08/06 00:07:31;;;;;;;15.73;9.45;;;;;;;;;;5072377;27;97535;-76
2022/08/06 00:10:13;;;;;;;9.43;4.47;;;;;;;;;;5069145;27;97276;-76
2022/08/06 00:12:40;;;;;;;8.40;2.70;;;;;;;;;;5071971;27;95493;-73
2022/08/06 00:15:07;;;;;;;7.82;2.40;;;;;;;;;;5072511;27;97132;-74
2022/08/06 00:17:42;;;;;;;8.82;2.17;;;;;;;;;;5059064;27;97135;-73
2022/08/06 00:20:09;;;;;;;8.57;2.10;;;;;;;;;;5063031;27;95192;-74
2022/08/06 00:22:36;;;;;;;8.15;2.00;;;;;;;;;;5070941;27;97326;-74
2022/08/06 00:25:02;;;;;;;8.95;2.33;;;;;;;;;;5072109;27;95386;-76
2022/08/06 00:27:30;;;;;;;7.25;2.22;;;;;;;;;;5067404;27;96823;-73
2022/08/06 00:30:04;;;;;;;6.57;2.22;;;;;;;;;;5067651;27;97364;-77
2022/08/06 00:32:40;;;;;;;6.85;1.90;;;;;;;;;;5071112;27;95385;-73
2022/08/06 00:35:06;;;;;;;6.57;1.92;;;;;;;;;;5072583;27;96870;-74
2022/08/06 00:37:32;;;;;;;5.75;2.10;;;;;;;;;;5070710;27;97625;-73
2022/08/06 00:40:19;;;;;;;4.65;2.00;;;;;;;;;;5069961;27;96962;-76
2022/08/06 00:42:50;;;;;;;8.05;1.90;;;;;;;;;;5077180;27;97028;-76
2022/08/06 00:45:19;;;;;;;8.20;2.20;;;;;;;;;;5075564;27;95391;-77
2022/08/06 00:47:50;;;;;;;7.05;2.22;;;;;;;;;;5074447;27;96950;-76
2022/08/06 00:50:29;;;;;;;7.00;2.10;;;;;;;;;;5073828;27;97264;-76
2022/08/06 00:52:55;;;;;;;7.47;2.40;;;;;;;;;;5071970;27;96062;-77
2022/08/06 00:55:21;;;;;;;9.02;2.88;;;;;;;;;;5075114;27;96969;-78
2022/08/06 00:58:01;;;;;;;8.52;2.25;;;;;;;;;;5075012;27;97388;-77
2022/08/06 01:00:27;;;;;;;7.70;2.53;;;;;;;;;;5072760;27;96807;-77
2022/08/06 01:02:56;;;;;;;8.60;3.05;;;;;;;;;;5073563;27;97361;-74
2022/08/06 01:05:22;;;;;;;8.13;3.00;;;;;;;;;;5078056;27;97415;-75
2022/08/06 01:08:09;;;;;;;10.63;2.80;;;;;;;;;;5073287;27;98016;-77
2022/08/06 01:10:35;;;;;;;7.40;2.45;;;;;;;;;;5072751;27;97750;-78
2022/08/06 01:13:08;;;;;;;8.05;2.30;;;;;;;;;;5073538;27;95852;-78
2022/08/06 01:16:11;;;;;;;12.60;2.30;;;;;;;;;;5072789;27;96749;-77
2022/08/06 01:18:53;;;;;;;;;;;;;;;;;;5074702;27;97505;-78
2022/08/06 01:21:53;;;;;;;7.53;2.28;;;;;;;;;;5060307;27;118800;-78
2022/08/06 01:24:51;;;;;;;12.25;2.30;;;;;;;;;;5070620;27;98606;-78
2022/08/06 01:27:29;;;;;;;9.18;2.10;;;;;;;;;;5073963;27;97275;-77
2022/08/06 01:30:08;;;;;;;6.38;2.17;;;;;;;;;;5078171;27;95213;-78
2022/08/06 01:32:37;;;;;;;8.23;2.65;;;;;;;;;;5073106;27;97359;-78
2022/08/06 01:35:13;;;;;;;7.95;2.22;;;;;;;;;;5074476;27;95230;-78
2022/08/06 01:38:05;;;;;;;6.15;2.22;;;;;;;;;;5071079;27;96950;-78
2022/08/06 01:40:37;;;;;;;5.38;2.13;;;;;;;;;;5074808;27;96251;-78
2022/08/06 01:43:07;;;;;;;6.30;2.20;;;;;;;;;;5061654;27;95343;-78
2022/08/06 01:45:55;;;;;;;12.25;2.78;;;;;;;;;;5072710;27;98241;-75
2022/08/06 01:48:23;;;;;;;7.85;2.22;;;;;;;;;;5069450;27;97326;-76
2022/08/06 01:50:55;;;;;;;7.72;2.42;;;;;;;;;;5071681;27;95228;-76
2022/08/06 01:53:31;;;;;;;6.85;2.15;;;;;;;;;;5075141;27;97262;-78
2022/08/06 01:56:18;;;;;;;6.50;2.33;;;;;;;;;;5073972;27;95353;-78
2022/08/06 01:59:05;;;;;;;5.38;2.00;;;;;;;;;;5074494;27;98334;-78
2022/08/06 02:01:36;;;;;;;4.68;2.00;;;;;;;;;;5071319;27;97430;-78
2022/08/06 02:04:21;;;;;;;7.38;1.95;;;;;;;;;;5055849;27;95712;-77
2022/08/06 02:06:50;;;;;;;6.32;2.25;;;;;;;;;;5053910;27;96072;-78
2022/08/06 02:09:19;;;;;;;7.57;2.40;;;;;;;;;;5070372;27;99172;-78
2022/08/06 02:12:00;;;;;;;5.80;1.90;;;;;;;;;;5073172;27;95256;-77
2022/08/06 02:14:34;;;;;;;6.57;2.60;;;;;;;;;;5073374;27;97486;-78
2022/08/06 02:17:02;;;;;;;5.78;2.40;;;;;;;;;;5075823;27;97298;-77
2022/08/06 02:19:44;;;;;;;6.65;2.60;;;;;;;;;;5074385;27;97151;-78
2022/08/06 02:22:26;;;;;;;10.45;2.72;;;;;;;;;;5073225;27;97444;-76
2022/08/06 02:24:56;;;;;;;6.25;2.40;;;;;;;;;;5073942;27;95294;-78
2022/08/06 02:27:28;;;;;;;5.45;2.22;;;;;;;;;;5072737;27;97167;-78
2022/08/06 02:30:15;;;;;;;11.80;2.35;;;;;;;;;;5072755;27;98690;-77
2022/08/06 02:32:44;;;;;;;8.27;2.47;;;;;;;;;;5071059;27;96846;-78
2022/08/06 02:35:11;;;;;;;10.88;2.33;;;;;;;;;;5073995;27;97031;-78
2022/08/06 02:37:40;;;;;;;9.13;2.70;;;;;;;;;;5075654;27;98098;-78
2022/08/06 02:40:31;;;;;;;6.30;2.38;;;;;;;;;;5073412;27;98444;-78
2022/08/06 02:43:04;;;;;;;7.03;2.42;;;;;;;;;;5071264;27;97425;-77
2022/08/06 02:45:46;;;;;;;7.80;2.40;;;;;;;;;;5072439;27;96748;-78
2022/08/06 02:48:30;;;;;;;7.22;2.50;;;;;;;;;;5053282;27;96871;-78
2022/08/06 02:50:59;;;;;;;6.03;2.30;;;;;;;;;;5052082;27;97430;-78
2022/08/06 02:53:30;;;;;;;7.60;2.40;;;;;;;;;;5071694;27;95381;-78
2022/08/06 02:56:11;;;;;;;7.45;2.50;;;;;;;;;;5071969;27;96945;-77
2022/08/06 02:58:45;;;;;;;10.32;2.20;;;;;;;;;;5071142;27;96370;-78
2022/08/06 03:01:26;;;;;;;6.57;2.25;;;;;;;;;;5075412;27;95358;-78
2022/08/06 03:03:55;;;;;;;5.05;2.42;;;;;;;;;;5072305;27;98307;-78
2022/08/06 03:06:26;;;;;;;5.55;2.58;;;;;;;;;;5072013;27;95232;-78
2022/08/06 03:08:53;;;;;;;8.38;2.30;;;;;;;;;;5071917;27;96588;-78
2022/08/06 03:11:21;;;;;;;9.85;2.50;;;;;;;;;;5071090;27;97484;-78
2022/08/06 03:13:48;;;;;;;8.32;2.63;;;;;;;;;;5071006;27;96615;-78
2022/08/06 03:16:15;;;;;;;7.45;2.60;;;;;;;;;;5073394;27;97091;-76
2022/08/06 03:18:50;;;;;;;6.03;2.28;;;;;;;;;;5072597;27;97304;-78
2022/08/06 03:21:37;;;;;;;6.93;2.50;;;;;;;;;;5070526;27;95537;-78
2022/08/06 03:24:04;;;;;;;12.10;2.92;;;;;;;;;;5074089;27;97111;-78
2022/08/06 03:26:31;;;;;;;5.47;2.35;;;;;;;;;;5072504;27;95323;-78
2022/08/06 03:28:59;;;;;;;12.13;2.28;;;;;;;;;;5072365;27;98738;-77
2022/08/06 03:31:26;;;;;;;6.15;2.35;;;;;;;;;;5072361;27;97309;-76
2022/08/06 03:33:59;;;;;;;7.65;2.60;;;;;;;;;;5062771;27;97683;-76
2022/08/06 03:36:29;;;;;;;4.55;2.05;;;;;;;;;;5057482;27;97043;-76
2022/08/06 03:39:02;;;;;;;6.35;2.17;;;;;;;;;;5051056;27;97345;-76
2022/08/06 03:41:29;;;;;;;;;;;;;;;;;;5063145;27;95387;-76
2022/08/06 03:44:00;;;;;;;13.85;2.60;;;;;;;;;;5067975;27;127019;-76
2022/08/06 03:46:35;;;;;;;8.60;2.40;;;;;;;;;;5073022;27;97500;-76
2022/08/06 03:49:04;;;;;;;6.50;2.40;;;;;;;;;;5072090;27;97038;-76
2022/08/06 03:51:33;;;;;;;6.55;2.13;;;;;;;;;;5072174;27;97592;-76
2022/08/06 03:54:22;;;;;;;7.70;2.25;;;;;;;;;;5069112;27;95539;-76
2022/08/06 03:56:59;;;;;;;6.07;2.28;;;;;;;;;;5071395;27;97111;-75
2022/08/06 03:59:27;;;;;;;3.25;2.35;;;;;;;;;;5060799;27;96278;-76
2022/08/06 04:02:09;;;;;;;10.45;2.40;;;;;;;;;;5070096;27;95376;-76
2022/08/06 19:51:39;;;;;;;1.90;1.20;;;;;;;;;;5047433;27;95377;-77
2022/08/06 19:54:26;;;;;;;3.90;1.42;;;;;;;;;;5048789;27;99057;-77
2022/08/06 19:57:02;;;;;;;2.38;1.40;;;;;;;;;;5027364;27;95519;-77
2022/08/06 19:59:33;;;;;;;5.05;1.52;;;;;;;;;;5016310;27;95650;-77
2022/08/06 20:02:20;;;;;;;3.13;1.50;;;;;;;;;;5008589;28;98724;-78
2022/08/06 20:04:53;;;;;;;4.23;1.63;;;;;;;;;;5009501;27;95312;-78
2022/08/06 20:07:21;;;;;;;2.00;1.20;;;;;;;;;;5031576;27;96831;-78
2022/08/06 20:09:51;;;;;;;2.60;1.50;;;;;;;;;;5030762;27;97277;-78
2022/08/06 20:12:30;;;;;;;2.88;1.40;;;;;;;;;;5030564;28;95376;-77
2022/08/06 20:14:59;;;;;;;6.13;1.45;;;;;;;;;;5026779;28;98408;-78
2022/08/06 20:17:26;;;;;;;6.72;1.88;;;;;;;;;;5021456;27;95384;-78
2022/08/06 20:20:11;;;;;;;3.83;2.10;;;;;;;;;;5018597;28;96649;-77
2022/08/06 20:22:40;;;;;;;4.28;2.20;;;;;;;;;;5018869;28;97654;-77
2022/08/06 20:25:09;;;;;;;4.53;2.40;;;;;;;;;;5028169;27;95447;-77
2022/08/06 20:27:45;;;;;;;4.30;1.90;;;;;;;;;;5025018;27;96824;-77
2022/08/06 20:30:32;;;;;;;2.92;1.90;;;;;;;;;;5021444;27;99145;-78
2022/08/06 20:32:59;;;;;;;3.65;2.22;;;;;;;;;;5036888;27;95239;-78
2022/08/06 20:35:27;;;;;;;3.90;2.40;;;;;;;;;;5030156;28;96808;-77
2022/08/06 20:37:57;;;;;;;7.40;4.53;;;;;;;;;;5028548;27;95238;-78
2022/08/06 20:40:32;;;;;;;8.05;3.58;;;;;;;;;;5015634;28;96771;-78
2022/08/06 20:43:18;;;;;;;6.28;2.70;;;;;;;;;;5031420;27;98655;-77
2022/08/06 20:46:05;;;;;;;4.93;2.35;;;;;;;;;;5041237;27;96777;-77
2022/08/06 20:48:32;;;;;;;4.65;2.20;;;;;;;;;;5026697;27;97051;-78
2022/08/06 20:51:00;;;;;;;5.70;2.85;;;;;;;;;;5029922;27;98000;-78
2022/08/06 20:53:31;;;;;;;5.45;2.00;;;;;;;;;;5045105;27;95322;-77
2022/08/06 20:55:58;;;;;;;6.03;2.58;;;;;;;;;;5066974;27;96829;-75
2022/08/06 20:58:24;;;;;;;5.50;2.45;;;;;;;;;;5060908;27;97803;-74
2022/08/06 21:00:57;;;;;;;5.63;2.67;;;;;;;;;;5034309;27;96785;-74
2022/08/06 21:03:24;;;;;;;3.60;2.10;;;;;;;;;;5018109;27;97129;-74
2022/08/06 21:06:10;;;;;;;4.38;2.03;;;;;;;;;;5043758;27;95201;-73
2022/08/06 21:08:37;;;;;;;4.82;1.80;;;;;;;;;;5023664;27;96799;-74
2022/08/06 21:11:04;;;;;;;3.25;1.70;;;;;;;;;;5008587;28;97322;-74
2022/08/06 21:13:30;;;;;;;10.68;2.22;;;;;;;;;;5037499;27;95563;-75
2022/08/06 21:16:17;;;;;;;4.75;2.00;;;;;;;;;;5035044;28;98589;-74
2022/08/06 21:18:57;;;;;;;5.40;1.90;;;;;;;;;;5027731;27;97659;-74
2022/08/06 21:21:25;;;;;;;3.20;1.95;;;;;;;;;;5036337;27;96254;-74
2022/08/06 21:23:57;;;;;;;4.03;2.17;;;;;;;;;;5016305;28;97499;-73
2022/08/06 21:26:24;;;;;;;5.40;1.90;;;;;;;;;;5034624;28;95396;-77
2022/08/06 21:29:01;;;;;;;3.22;1.80;;;;;;;;;;5032121;27;95584;-74
2022/08/06 21:31:48;;;;;;;4.13;1.98;;;;;;;;;;5029446;27;99363;-74
2022/08/06 21:34:15;;;;;;;4.47;1.83;;;;;;;;;;5054481;27;95435;-75
2022/08/06 21:36:42;;;;;;;2.78;1.70;;;;;;;;;;5055027;27;97065;-77
2022/08/06 21:39:08;;;;;;;2.53;1.83;;;;;;;;;;5041979;27;97416;-74
2022/08/06 21:41:39;;;;;;;5.05;1.90;;;;;;;;;;5006106;28;95264;-76
2022/08/06 21:44:25;;;;;;;4.03;2.00;;;;;;;;;;5041302;27;96851;-74
2022/08/06 21:46:56;;;;;;;2.83;1.80;;;;;;;;;;5033026;27;95443;-74
2022/08/06 21:49:26;;;;;;;2.85;1.80;;;;;;;;;;5042789;27;95668;-76
2022/08/06 21:52:12;;;;;;;3.63;2.00;;;;;;;;;;5033414;27;99144;-74
2022/08/06 21:54:53;;;;;;;3.70;2.10;;;;;;;;;;5033858;28;95345;-74
2022/08/06 21:57:21;;;;;;;3.58;1.90;;;;;;;;;;5032550;28;96749;-76
2022/08/06 21:59:50;;;;;;;3.50;2.13;;;;;;;;;;5013056;28;97384;-74
2022/08/06 22:02:18;;;;;;;6.18;1.80;;;;;;;;;;5033970;28;95535;-73
2022/08/06 22:04:48;;;;;;;5.22;2.20;;;;;;;;;;5043985;27;98248;-74
2022/08/06 22:07:24;;;;;;;5.95;2.20;;;;;;;;;;5056298;27;95324;-75
2022/08/06 22:10:11;;;;;;;4.50;1.92;;;;;;;;;;5037506;27;98663;-74
2022/08/06 22:12:37;;;;;;;6.57;2.08;;;;;;;;;;5015259;27;97402;-74
2022/08/06 22:15:23;;;;;;;5.82;2.35;;;;;;;;;;5034246;28;95235;-74
2022/08/06 22:17:55;;;;;;;2.90;1.85;;;;;;;;;;5033752;28;96610;-74
2022/08/06 22:20:28;;;;;;;4.47;2.33;;;;;;;;;;5043734;27;97454;-78
2022/08/06 22:22:55;;;;;;;3.95;2.15;;;;;;;;;;5038338;27;95338;-78
2022/08/06 22:25:22;;;;;;;4.43;2.20;;;;;;;;;;5045108;27;97174;-78
2022/08/06 22:27:50;;;;;;;4.38;2.08;;;;;;;;;;5038539;27;97465;-78
2022/08/06 22:30:34;;;;;;;4.53;2.15;;;;;;;;;;5039523;27;96816;-77
2022/08/06 22:33:02;;;;;;;4.05;2.10;;;;;;;;;;5050651;27;97359;-78
2022/08/06 22:35:37;;;;;;;6.28;2.30;;;;;;;;;;5042163;27;95295;-78
2022/08/06 22:38:05;;;;;;;12.10;2.95;;;;;;;;;;5033353;28;95880;-78
2022/08/06 22:40:49;;;;;;;8.00;2.15;;;;;;;;;;5001753;28;97630;-78
2022/08/06 22:43:16;;;;;;;7.38;2.25;;;;;;;;;;5032544;27;96092;-77
2022/08/06 22:45:47;;;;;;;;;;;;;;;;;;5034271;28;96953;-78
2022/08/06 22:48:27;;;;;;;8.35;2.50;;;;;;;;;;5031268;28;127210;-78
2022/08/06 22:51:01;;;;;;;6.15;2.72;;;;;;;;;;5027139;27;96712;-77
2022/08/06 22:53:27;;;;;;;7.40;2.50;;;;;;;;;;5032688;28;97390;-78
2022/08/06 22:56:13;;;;;;;5.32;2.50;;;;;;;;;;5026089;28;95436;-78
2022/08/06 22:58:40;;;;;;;5.50;2.72;;;;;;;;;;5033302;28;96875;-78
2022/08/06 23:01:26;;;;;;;4.93;2.65;;;;;;;;;;5030308;27;99582;-77
2022/08/06 23:04:13;;;;;;;6.15;2.50;;;;;;;;;;5035253;27;95701;-78
2022/08/06 23:06:41;;;;;;;15.93;2.78;;;;;;;;;;5046808;27;96706;-78
2022/08/06 23:09:11;;;;;;;5.38;2.40;;;;;;;;;;5032316;27;97599;-77
2022/08/06 23:11:42;;;;;;;4.65;2.50;;;;;;;;;;5013043;28;95424;-77
2022/08/06 23:14:25;;;;;;;6.63;2.45;;;;;;;;;;5027227;27;96756;-78
2022/08/06 23:16:57;;;;;;;4.32;2.45;;;;;;;;;;5042143;27;95339;-79
2022/08/06 23:19:24;;;;;;;6.18;2.30;;;;;;;;;;5033106;28;97140;-78
2022/08/06 23:21:55;;;;;;;11.13;2.75;;;;;;;;;;5000103;28;96987;-79
2022/08/06 23:24:31;;;;;;;8.23;2.65;;;;;;;;;;5024084;27;95246;-79
2022/08/06 23:27:01;;;;;;;4.28;2.60;;;;;;;;;;5023640;27;96739;-75
2022/08/06 23:29:27;;;;;;;5.85;2.50;;;;;;;;;;5023378;28;97657;-74
2022/08/06 23:32:00;;;;;;;5.13;2.42;;;;;;;;;;5025322;27;96079;-75
2022/08/06 23:34:26;;;;;;;6.25;2.35;;;;;;;;;;5045371;27;97281;-75
2022/08/06 23:37:01;;;;;;;4.75;2.33;;;;;;;;;;5035931;27;97698;-74
2022/08/06 23:39:36;;;;;;;7.78;3.05;;;;;;;;;;5032628;28;95984;-75
2022/08/06 23:42:05;;;;;;;4.47;2.47;;;;;;;;;;5031604;27;97365;-76
2022/08/06 23:44:40;;;;;;;6.05;2.72;;;;;;;;;;5032340;28;95711;-74
2022/08/06 23:47:08;;;;;;;4.82;2.40;;;;;;;;;;5030230;28;97001;-75
2022/08/06 23:49:54;;;;;;;4.88;2.78;;;;;;;;;;5021667;28;98645;-74
2022/08/06 23:52:21;;;;;;;6.55;2.70;;;;;;;;;;5024920;27;95394;-74
2022/08/06 23:54:49;;;;;;;4.22;2.60;;;;;;;;;;5032870;28;97228;-74
2022/08/06 23:57:18;;;;;;;3.75;2.45;;;;;;;;;;5028552;28;97391;-74
